Отчёт УТП Анапа 18.04.2020

18 Апреля 2020 года в 08-10 UTC в аэропорту Анапы (URKA) прошли учебно-тренировочные полеты в сети IVAO.

В работе был Анапа Руление, Анапа Старт и Анапа Круг.

Погода во время УТП:

METAR URKA 180900Z 23006MPS CAVOK 14/08 Q1015 R22/010070
           NOSIG RMK QFE756/1009=

Движение в воздухе было умеренным, 3 борта курсантов выполняли упражнения и 3 борта сети IVAO на вылет.

Все курсанты справились со своими задачами. После полётов курсантов ожидал разбор полётов, где каждый услышал замечания от Инструктора.

Происшествий и нарушений правил УТП и IVAO – не зарегистрировано.

Ошибки курсантов представлены ниже (без привязки): неверный план полёта, нет выключения ответчика, превышение скорости, неверная ширина круга, нет повторения условного разрешения, поздний доклад, перебор высоты, недобор высоты, неверная высота ухода.